createdAt,value
2022-09-13T00:00:21.423Z,3.47
2022-09-13T00:05:16.128Z,1.60
2022-09-13T00:10:10.118Z,1.63
2022-09-13T00:15:04.118Z,1.42
2022-09-13T00:19:57.348Z,4.60
2022-09-13T00:24:51.969Z,3.28
2022-09-13T00:29:45.284Z,3.03
2022-09-13T00:34:38.691Z,2.28
2022-09-13T00:39:31.876Z,2.85
2022-09-13T00:45:00.702Z,1.70
2022-09-13T00:50:00.483Z,2.45
2022-09-13T00:55:02.434Z,1.73
2022-09-13T01:00:11.061Z,2.30
2022-09-13T01:05:05.419Z,1.83
2022-09-13T01:09:58.907Z,3.40
2022-09-13T01:14:53.693Z,3.00
2022-09-13T01:19:48.746Z,3.13
2022-09-13T01:25:09.837Z,1.90
2022-09-13T01:30:20.673Z,2.97
2022-09-13T01:35:25.651Z,2.63
2022-09-13T01:40:36.429Z,2.03
2022-09-13T01:45:46.022Z,2.05
2022-09-13T01:50:47.158Z,2.22
2022-09-13T01:55:49.650Z,2.72
2022-09-13T02:00:53.623Z,2.85
2022-09-13T02:05:55.714Z,2.20
2022-09-13T02:10:57.446Z,2.08
2022-09-13T02:15:59.284Z,3.88
2022-09-13T02:21:00.199Z,2.00
2022-09-13T02:25:58.312Z,2.35
2022-09-13T02:30:55.815Z,2.88
2022-09-13T02:35:56.980Z,2.58
2022-09-13T02:40:58.636Z,2.65
2022-09-13T02:46:10.316Z,3.70
2022-09-13T02:51:17.431Z,2.33
2022-09-13T02:56:24.907Z,2.08
2022-09-13T03:01:21.555Z,2.55
2022-09-13T03:06:22.309Z,2.25
2022-09-13T03:11:29.184Z,2.15
2022-09-13T03:16:44.094Z,2.53
2022-09-13T03:22:01.025Z,2.70
2022-09-13T03:27:16.644Z,2.35
2022-09-13T03:32:24.220Z,4.93
2022-09-13T03:37:31.832Z,4.00
2022-09-13T03:42:36.414Z,2.28
2022-09-13T03:47:36.833Z,2.58
2022-09-13T03:52:30.486Z,2.50
2022-09-13T03:57:24.169Z,3.83
2022-09-13T04:02:18.976Z,2.53
2022-09-13T04:07:16.505Z,2.28
2022-09-13T04:12:11.089Z,2.30
2022-09-13T04:17:04.965Z,2.85
2022-09-13T04:21:58.514Z,3.00
2022-09-13T04:26:54.503Z,2.50
2022-09-13T04:31:48.987Z,2.65
2022-09-13T04:36:42.948Z,3.00
2022-09-13T04:41:36.207Z,3.67
2022-09-13T04:46:30.865Z,3.97
2022-09-13T04:51:25.149Z,6.13
2022-09-13T04:56:19.647Z,11.23
2022-09-13T05:01:13.173Z,6.78
2022-09-13T05:06:10.994Z,12.05
2022-09-13T05:11:05.435Z,15.30
2022-09-13T05:16:00.698Z,8.55
2022-09-13T05:20:56.382Z,11.27
2022-09-13T05:25:55.687Z,8.45
2022-09-13T05:30:57.279Z,5.00
2022-09-13T05:35:51.353Z,5.90
2022-09-13T05:40:44.625Z,7.80
2022-09-13T05:45:39.352Z,8.13
2022-09-13T05:50:57.292Z,6.25
2022-09-13T05:55:45.846Z,5.47
2022-09-13T06:00:40.461Z,5.70
2022-09-13T06:05:33.701Z,5.22
2022-09-13T06:10:26.915Z,5.13
2022-09-13T06:15:20.221Z,5.05
2022-09-13T06:20:14.853Z,5.90
2022-09-13T06:25:09.470Z,5.95
2022-09-13T06:30:02.800Z,8.00
2022-09-13T06:34:56.139Z,5.32
2022-09-13T06:39:50.878Z,4.60
2022-09-13T06:44:45.920Z,6.55
2022-09-13T06:49:39.517Z,6.25
2022-09-13T06:54:32.901Z,5.80
2022-09-13T06:59:27.593Z,3.90
2022-09-13T07:04:20.838Z,5.97
2022-09-13T07:09:18.066Z,6.72
2022-09-13T07:14:16.526Z,4.93
2022-09-13T07:19:16.581Z,6.93
2022-09-13T07:24:10.590Z,6.43
2022-09-13T07:29:08.394Z,8.95
2022-09-13T07:34:04.837Z,6.60
2022-09-13T07:39:01.584Z,6.72
2022-09-13T07:43:55.727Z,5.22
2022-09-13T07:48:50.168Z,4.22
2022-09-13T07:53:46.362Z,5.75
2022-09-13T07:58:44.058Z,5.18
2022-09-13T08:03:38.276Z,6.00
2022-09-13T08:08:31.941Z,6.25
2022-09-13T08:13:25.852Z,4.65
2022-09-13T08:18:21.227Z,3.97
2022-09-13T08:23:15.378Z,4.50
2022-09-13T08:28:10.874Z,3.65
2022-09-13T08:38:07.471Z,4.55
2022-09-13T08:43:11.050Z,5.72
2022-09-13T08:48:14.225Z,4.65
2022-09-13T08:53:23.935Z,4.80
2022-09-13T08:58:40.148Z,4.32
2022-09-13T09:03:47.210Z,4.43
2022-09-13T09:08:48.958Z,3.92
2022-09-13T09:13:53.879Z,3.50
2022-09-13T09:18:50.424Z,9.77
2022-09-13T09:23:52.421Z,4.47
2022-09-13T09:28:51.307Z,4.60
2022-09-13T09:34:04.930Z,3.28
2022-09-13T09:38:59.563Z,2.80
2022-09-13T09:44:02.879Z,3.45
2022-09-13T09:49:27.669Z,2.80
2022-09-13T09:54:23.173Z,6.10
2022-09-13T09:59:28.637Z,3.33
2022-09-13T10:04:24.006Z,5.43
2022-09-13T10:09:21.717Z,5.10
2022-09-13T10:14:38.098Z,4.00
2022-09-13T10:19:32.008Z,5.68
2022-09-13T10:24:26.610Z,3.55
2022-09-13T10:29:20.239Z,3.03
2022-09-13T10:34:21.169Z,3.03
2022-09-13T10:39:19.058Z,3.75
2022-09-13T10:44:29.867Z,3.22
2022-09-13T10:49:45.537Z,3.00
2022-09-13T10:54:38.786Z,3.28
2022-09-13T10:59:33.567Z,2.30
2022-09-13T11:05:19.449Z,2.15
2022-09-13T11:10:27.171Z,3.15
2022-09-13T11:15:41.321Z,2.55
2022-09-13T11:20:48.920Z,2.40
2022-09-13T11:26:02.923Z,2.08
2022-09-13T11:31:24.971Z,2.08
2022-09-13T11:36:47.136Z,2.25
2022-09-13T11:41:53.700Z,2.30
2022-09-13T11:46:58.802Z,2.60
2022-09-13T11:52:07.835Z,2.35
2022-09-13T11:57:09.129Z,2.70
2022-09-13T12:02:19.962Z,1.80
2022-09-13T12:07:26.615Z,2.25
2022-09-13T12:12:21.707Z,2.40
2022-09-13T12:17:28.393Z,3.75
2022-09-13T12:22:27.625Z,1.73
2022-09-13T12:27:32.276Z,1.77
2022-09-13T12:32:29.114Z,2.20
2022-09-13T12:37:51.552Z,3.72
2022-09-13T12:43:42.390Z,2.00
2022-09-13T12:49:24.955Z,2.10
2022-09-13T12:54:50.638Z,3.03
2022-09-13T13:00:11.511Z,2.03
2022-09-13T13:05:23.187Z,2.60
2022-09-13T13:10:32.173Z,2.17
2022-09-13T13:16:05.903Z,2.05
2022-09-13T13:21:38.907Z,2.00
2022-09-13T13:26:50.761Z,2.70
2022-09-13T13:32:10.447Z,2.70
2022-09-13T13:37:24.254Z,2.95
2022-09-13T13:42:29.518Z,3.67
2022-09-13T13:48:09.910Z,1.83
2022-09-13T13:53:37.249Z,3.28
2022-09-13T13:58:48.140Z,2.55
2022-09-13T14:04:00.778Z,2.20
2022-09-13T14:09:15.693Z,2.08
2022-09-13T14:14:39.891Z,3.20
2022-09-13T14:19:40.860Z,2.53
2022-09-13T14:24:42.288Z,3.97
2022-09-13T14:29:35.530Z,2.42
2022-09-13T14:34:33.580Z,4.93
2022-09-13T14:39:28.229Z,2.15
2022-09-13T14:44:28.905Z,3.05
2022-09-13T14:49:27.758Z,2.97
2022-09-13T14:54:32.161Z,2.13
2022-09-13T14:59:32.926Z,2.53
2022-09-13T15:04:28.210Z,3.78
2022-09-13T15:09:29.785Z,1.80
2022-09-13T15:14:31.187Z,2.28
2022-09-13T15:19:37.594Z,1.77
2022-09-13T15:24:35.321Z,2.00
2022-09-13T15:29:34.741Z,3.25
2022-09-13T15:34:28.581Z,2.05
2022-09-13T15:39:23.117Z,2.17
2022-09-13T15:44:16.325Z,2.58
2022-09-13T15:49:18.068Z,2.25
2022-09-13T15:54:15.312Z,2.72
2022-09-13T15:59:09.179Z,2.65
2022-09-13T16:04:03.979Z,2.50
2022-09-13T16:09:00.128Z,4.25
2022-09-13T16:13:53.355Z,3.45
2022-09-13T16:18:46.909Z,3.78
2022-09-13T16:23:40.167Z,2.75
2022-09-13T16:28:34.849Z,4.95
2022-09-13T16:33:28.108Z,6.38
2022-09-13T16:38:21.320Z,3.88
2022-09-13T16:43:14.526Z,2.42
2022-09-13T16:48:09.917Z,2.63
2022-09-13T16:53:03.250Z,3.20
2022-09-13T16:57:56.499Z,3.05
2022-09-13T17:02:49.826Z,2.50
2022-09-13T17:07:44.547Z,3.05
2022-09-13T17:12:37.809Z,3.40
2022-09-13T17:17:35.961Z,2.40
2022-09-13T17:22:29.248Z,4.15
2022-09-13T17:27:23.880Z,2.70
2022-09-13T17:32:17.169Z,3.17
2022-09-13T17:37:10.393Z,6.03
2022-09-13T17:42:03.703Z,3.92
2022-09-13T17:46:58.388Z,4.15
2022-09-13T17:51:51.739Z,6.30
2022-09-13T17:56:46.306Z,5.15
2022-09-13T18:01:41.585Z,4.85
2022-09-13T18:06:36.548Z,3.92
2022-09-13T18:11:29.970Z,4.05
2022-09-13T18:16:26.718Z,4.97
2022-09-13T18:21:22.396Z,6.70
2022-09-13T18:26:20.404Z,3.83
2022-09-13T18:31:16.931Z,6.82
2022-09-13T18:36:12.587Z,4.32
2022-09-13T18:41:09.017Z,3.72
2022-09-13T18:46:07.018Z,3.83
2022-09-13T18:51:00.717Z,3.00
2022-09-13T18:55:56.019Z,3.17
2022-09-13T19:00:49.405Z,7.30
2022-09-13T19:05:44.099Z,3.58
2022-09-13T19:10:38.050Z,5.63
2022-09-13T19:15:33.770Z,3.65
2022-09-13T19:20:27.913Z,5.63
2022-09-13T19:25:27.665Z,2.72
2022-09-13T19:30:20.963Z,3.80
2022-09-13T19:35:14.466Z,5.13
2022-09-13T19:40:09.329Z,5.20
2022-09-13T19:45:04.078Z,3.67
2022-09-13T19:49:59.000Z,5.03
2022-09-13T19:54:56.219Z,3.67
2022-09-13T19:59:49.516Z,4.07
2022-09-13T20:04:44.208Z,7.32
2022-09-13T20:09:37.956Z,4.22
2022-09-13T20:14:32.787Z,5.40
2022-09-13T20:19:45.114Z,5.70
2022-09-13T20:24:40.984Z,3.00
2022-09-13T20:29:34.200Z,3.20
2022-09-13T20:34:28.050Z,3.65
2022-09-13T20:39:21.334Z,4.10
2022-09-13T20:44:16.155Z,4.03
2022-09-13T20:49:10.314Z,2.70
2022-09-13T20:54:06.035Z,3.53
2022-09-13T20:59:01.272Z,5.53
2022-09-13T21:03:56.851Z,3.47
2022-09-13T21:08:51.230Z,3.40
2022-09-13T21:13:48.486Z,3.55
2022-09-13T21:18:42.334Z,6.47
2022-09-13T21:23:40.175Z,3.53
2022-09-13T21:28:35.580Z,3.75
2022-09-13T21:33:29.904Z,4.03
2022-09-13T21:38:23.183Z,4.32
2022-09-13T21:43:18.180Z,5.88
2022-09-13T21:48:11.453Z,3.13
2022-09-13T21:53:04.691Z,3.30
2022-09-13T21:57:58.293Z,4.00
2022-09-13T22:02:52.917Z,4.80
2022-09-13T22:07:47.301Z,3.22
2022-09-13T22:12:40.545Z,3.33
2022-09-13T22:17:34.327Z,5.05
2022-09-13T22:22:29.218Z,5.07
2022-09-13T22:27:22.467Z,4.53
2022-09-13T22:32:15.685Z,3.47
2022-09-13T22:37:09.401Z,4.05
2022-09-13T22:42:04.005Z,3.88
2022-09-13T22:47:00.310Z,3.47
2022-09-13T22:51:53.549Z,4.70
2022-09-13T22:56:47.312Z,4.03
2022-09-13T23:01:43.911Z,2.92
2022-09-13T23:06:37.580Z,4.82
2022-09-13T23:11:34.295Z,4.13
2022-09-13T23:16:30.197Z,5.28
2022-09-13T23:21:28.362Z,5.65
2022-09-13T23:26:24.310Z,5.85
2022-09-13T23:31:21.015Z,4.20
2022-09-13T23:36:17.737Z,3.90
2022-09-13T23:41:12.771Z,6.57
2022-09-13T23:46:06.389Z,3.58
2022-09-13T23:51:01.670Z,3.95
2022-09-13T23:55:54.951Z,7.05
